Tufts University, Massachusetts
Current Conditions -  °F | °C
As of 10:54 PM on Saturday 25 Oct 2014 (Local Time) from KBOS Reporting Station
Broken Clouds Broken Clouds  
Wind Chill: 56°   Ceiling: 7000
Heat Index: 56°   Visibility: 10mi
Dew Point: 45°   Wind: 10mph
Humidity: 67%   Direction: 220°SW
Pressure: 29.52"   Gusts: NA
Location:  42.4184°N, 71.1069°W
Report Text: KBOS 260254Z 22009KT 10SM BKN070 13/07 A2952 RMK AO2 SLP997 T01330072 58020
Loading
Personal Weather Stations






























Interactive Weather Map
Tropical Storm Tracking
New forecast layout! Learn more

10-Day Weather Forecast

Advertisements
Track Severe Weather on mobile